North Hebron, New York
Current Conditions -  °F | °C
As of 8:53 AM on Monday 26 Jan 2015 (Local Time) from KGFL Reporting Station
Overcast Overcast  
Wind Chill: -8°   Ceiling: 9500
Heat Index:   Visibility: 10mi
Dew Point: -2°   Wind: 10mph
Humidity: 67%   Direction: 340°NNW
Pressure: 30.13"   Gusts: NA
Location:  43.3389°N, 73.3194°W
Report Text: KGFL 261353Z AUTO 34009KT 10SM BKN095 OVC110 M14/M19 A3013 RMK AO2 SLP217 T11391189
Loading
Personal Weather Stations






























Interactive Weather Map New forecast layout! Learn more

10-Day Weather Forecast

Advertisements
Track Severe Weather on mobile